sensor_id;sensor_type;location;lat;lon;timestamp;pressure;altitude;pressure_sealevel;temperature;humidity
41632;BME280;37452;51.938;4.624;2023-02-03T00:01:31;78137.50;;;-142.75;100.00
41632;BME280;37452;51.938;4.624;2023-02-03T00:03:56;78153.25;;;-142.75;100.00
41632;BME280;37452;51.938;4.624;2023-02-03T00:06:22;78159.16;;;-142.75;100.00
41632;BME280;37452;51.938;4.624;2023-02-03T00:08:47;78172.94;;;-142.75;100.00
41632;BME280;37452;51.938;4.624;2023-02-03T00:11:13;78170.97;;;-142.75;100.00
41632;BME280;37452;51.938;4.624;2023-02-03T00:13:38;78178.84;;;-142.75;100.00
41632;BME280;37452;51.938;4.624;2023-02-03T00:16:04;78153.25;;;-142.75;100.00
41632;BME280;37452;51.938;4.624;2023-02-03T00:18:31;78165.06;;;-142.75;100.00
41632;BME280;37452;51.938;4.624;2023-02-03T00:20:56;78165.06;;;-142.75;100.00
41632;BME280;37452;51.938;4.624;2023-02-03T00:23:22;78139.47;;;-142.75;100.00
41632;BME280;37452;51.938;4.624;2023-02-03T00:25:48;78159.16;;;-142.75;100.00
41632;BME280;37452;51.938;4.624;2023-02-03T00:28:13;78153.25;;;-142.75;100.00
41632;BME280;37452;51.938;4.624;2023-02-03T00:30:39;78186.75;;;-142.75;100.00
41632;BME280;37452;51.938;4.624;2023-02-03T00:33:04;78172.94;;;-142.75;100.00
41632;BME280;37452;51.938;4.624;2023-02-03T00:35:29;78196.59;;;-142.75;100.00
41632;BME280;37452;51.938;4.624;2023-02-03T00:37:55;78192.66;;;-142.75;100.00
41632;BME280;37452;51.938;4.624;2023-02-03T00:40:23;78198.56;;;-142.75;100.00
41632;BME280;37452;51.938;4.624;2023-02-03T00:42:49;78186.75;;;-142.75;100.00
41632;BME280;37452;51.938;4.624;2023-02-03T00:45:15;78180.81;;;-142.75;100.00
41632;BME280;37452;51.938;4.624;2023-02-03T00:47:40;78184.78;;;-142.75;100.00
41632;BME280;37452;51.938;4.624;2023-02-03T00:50:06;78180.81;;;-142.75;100.00
41632;BME280;37452;51.938;4.624;2023-02-03T00:52:31;78172.94;;;-142.75;100.00
41632;BME280;37452;51.938;4.624;2023-02-03T00:54:56;78176.88;;;-142.75;100.00
41632;BME280;37452;51.938;4.624;2023-02-03T00:57:22;78184.78;;;-142.75;100.00
41632;BME280;37452;51.938;4.624;2023-02-03T00:59:47;78149.31;;;-142.75;100.00
41632;BME280;37452;51.938;4.624;2023-02-03T01:02:13;78174.91;;;-142.75;100.00
41632;BME280;37452;51.938;4.624;2023-02-03T01:04:38;78165.06;;;-142.75;100.00
41632;BME280;37452;51.938;4.624;2023-02-03T01:07:03;78170.97;;;-142.75;100.00
41632;BME280;37452;51.938;4.624;2023-02-03T01:09:31;78159.16;;;-142.75;100.00
41632;BME280;37452;51.938;4.624;2023-02-03T01:11:57;78161.13;;;-142.75;100.00
41632;BME280;37452;51.938;4.624;2023-02-03T01:14:22;78155.22;;;-142.75;100.00
41632;BME280;37452;51.938;4.624;2023-02-03T01:16:48;78180.81;;;-142.75;100.00
41632;BME280;37452;51.938;4.624;2023-02-03T01:19:13;78149.31;;;-142.75;100.00
41632;BME280;37452;51.938;4.624;2023-02-03T01:21:39;78169.00;;;-142.75;100.00
41632;BME280;37452;51.938;4.624;2023-02-03T01:24:08;78147.34;;;-142.75;100.00
41632;BME280;37452;51.938;4.624;2023-02-03T01:26:39;78169.00;;;-142.75;100.00
41632;BME280;37452;51.938;4.624;2023-02-03T01:29:04;78161.13;;;-142.75;100.00
41632;BME280;37452;51.938;4.624;2023-02-03T01:31:35;78172.94;;;-142.75;100.00
41632;BME280;37452;51.938;4.624;2023-02-03T01:34:05;78165.06;;;-142.75;100.00
41632;BME280;37452;51.938;4.624;2023-02-03T01:36:32;78155.22;;;-142.75;100.00
41632;BME280;37452;51.938;4.624;2023-02-03T01:38:58;78121.75;;;-142.75;100.00
41632;BME280;37452;51.938;4.624;2023-02-03T01:41:25;78121.75;;;-142.75;100.00
41632;BME280;37452;51.938;4.624;2023-02-03T01:43:53;78121.75;;;-142.75;100.00
41632;BME280;37452;51.938;4.624;2023-02-03T01:46:46;78133.56;;;-142.75;100.00
41632;BME280;37452;51.938;4.624;2023-02-03T01:49:19;78145.38;;;-142.75;100.00
41632;BME280;37452;51.938;4.624;2023-02-03T01:51:47;78153.25;;;-142.75;100.00
41632;BME280;37452;51.938;4.624;2023-02-03T01:54:20;78151.28;;;-142.75;100.00
41632;BME280;37452;51.938;4.624;2023-02-03T01:56:51;78159.16;;;-142.75;100.00
41632;BME280;37452;51.938;4.624;2023-02-03T01:59:18;78145.38;;;-142.75;100.00
41632;BME280;37452;51.938;4.624;2023-02-03T02:01:46;78167.03;;;-142.75;100.00
41632;BME280;37452;51.938;4.624;2023-02-03T02:04:11;78145.38;;;-142.75;100.00
41632;BME280;37452;51.938;4.624;2023-02-03T02:06:37;78157.19;;;-142.75;100.00
41632;BME280;37452;51.938;4.624;2023-02-03T02:09:02;78151.28;;;-142.75;100.00
41632;BME280;37452;51.938;4.624;2023-02-03T02:11:28;78135.53;;;-142.75;100.00
41632;BME280;37452;51.938;4.624;2023-02-03T02:13:54;78129.63;;;-142.75;100.00
41632;BME280;37452;51.938;4.624;2023-02-03T02:16:40;78131.59;;;-142.75;100.00
41632;BME280;37452;51.938;4.624;2023-02-03T02:30:29;78133.56;;;-142.75;100.00
41632;BME280;37452;51.938;4.624;2023-02-03T02:33:12;78137.50;;;-142.75;100.00
41632;BME280;37452;51.938;4.624;2023-02-03T02:41:28;78123.72;;;-142.75;100.00
41632;BME280;37452;51.938;4.624;2023-02-03T02:44:04;78121.75;;;-142.75;100.00
41632;BME280;37452;51.938;4.624;2023-02-03T02:46:37;78129.63;;;-142.75;100.00
41632;BME280;37452;51.938;4.624;2023-02-03T02:51:51;78129.63;;;-142.75;100.00
41632;BME280;37452;51.938;4.624;2023-02-03T02:54:20;78113.88;;;-142.75;100.00
41632;BME280;37452;51.938;4.624;2023-02-03T02:56:51;78125.69;;;-142.75;100.00
41632;BME280;37452;51.938;4.624;2023-02-03T02:59:17;78123.72;;;-142.75;100.00
41632;BME280;37452;51.938;4.624;2023-02-03T03:01:43;78117.81;;;-142.75;100.00
41632;BME280;37452;51.938;4.624;2023-02-03T03:04:10;78119.78;;;-142.75;100.00
41632;BME280;37452;51.938;4.624;2023-02-03T03:06:52;78121.75;;;-142.75;100.00
41632;BME280;37452;51.938;4.624;2023-02-03T03:09:25;78109.94;;;-142.75;100.00
41632;BME280;37452;51.938;4.624;2023-02-03T03:12:05;78098.13;;;-142.75;100.00
41632;BME280;37452;51.938;4.624;2023-02-03T03:14:33;78086.31;;;-142.75;100.00
41632;BME280;37452;51.938;4.624;2023-02-03T03:17:03;78088.28;;;-142.75;100.00
41632;BME280;37452;51.938;4.624;2023-02-03T03:19:37;78094.19;;;-142.75;100.00
41632;BME280;37452;51.938;4.624;2023-02-03T03:22:05;78090.25;;;-142.75;100.00
41632;BME280;37452;51.938;4.624;2023-02-03T03:24:40;78076.47;;;-142.75;100.00
41632;BME280;37452;51.938;4.624;2023-02-03T03:27:11;78080.41;;;-142.75;100.00
41632;BME280;37452;51.938;4.624;2023-02-03T03:29:49;78113.88;;;-142.75;100.00
41632;BME280;37452;51.938;4.624;2023-02-03T03:32:16;78113.88;;;-142.75;100.00
41632;BME280;37452;51.938;4.624;2023-02-03T03:34:42;78098.13;;;-142.75;100.00
41632;BME280;37452;51.938;4.624;2023-02-03T03:37:30;78107.97;;;-142.75;100.00
41632;BME280;37452;51.938;4.624;2023-02-03T03:40:09;78129.63;;;-142.75;100.00
41632;BME280;37452;51.938;4.624;2023-02-03T03:42:43;78119.78;;;-142.75;100.00
41632;BME280;37452;51.938;4.624;2023-02-03T03:50:32;78109.94;;;-142.75;100.00
41632;BME280;37452;51.938;4.624;2023-02-03T03:53:00;78121.75;;;-142.75;100.00
41632;BME280;37452;51.938;4.624;2023-02-03T03:55:29;78127.66;;;-142.75;100.00
41632;BME280;37452;51.938;4.624;2023-02-03T03:58:00;78137.50;;;-142.75;100.00
41632;BME280;37452;51.938;4.624;2023-02-03T04:00:29;78115.84;;;-142.75;100.00
41632;BME280;37452;51.938;4.624;2023-02-03T04:02:57;78137.50;;;-142.75;100.00
41632;BME280;37452;51.938;4.624;2023-02-03T04:05:24;78117.81;;;-142.75;100.00
41632;BME280;37452;51.938;4.624;2023-02-03T04:07:50;78125.69;;;-142.75;100.00
41632;BME280;37452;51.938;4.624;2023-02-03T04:10:35;78107.97;;;-142.75;100.00
41632;BME280;37452;51.938;4.624;2023-02-03T04:13:01;78123.72;;;-142.75;100.00
41632;BME280;37452;51.938;4.624;2023-02-03T04:15:28;78121.75;;;-142.75;100.00
41632;BME280;37452;51.938;4.624;2023-02-03T04:17:53;78127.66;;;-142.75;100.00
41632;BME280;37452;51.938;4.624;2023-02-03T04:20:21;78145.38;;;-142.75;100.00
41632;BME280;37452;51.938;4.624;2023-02-03T04:22:46;78139.47;;;-142.75;100.00
41632;BME280;37452;51.938;4.624;2023-02-03T04:25:11;78133.56;;;-142.75;100.00
41632;BME280;37452;51.938;4.624;2023-02-03T04:27:37;78121.75;;;-142.75;100.00
41632;BME280;37452;51.938;4.624;2023-02-03T04:30:03;78137.50;;;-142.75;100.00
41632;BME280;37452;51.938;4.624;2023-02-03T04:32:28;78137.50;;;-142.75;100.00
41632;BME280;37452;51.938;4.624;2023-02-03T04:34:55;78129.63;;;-142.75;100.00
41632;BME280;37452;51.938;4.624;2023-02-03T04:37:20;78121.75;;;-142.75;100.00
41632;BME280;37452;51.938;4.624;2023-02-03T04:39:47;78143.41;;;-142.75;100.00
41632;BME280;37452;51.938;4.624;2023-02-03T04:42:14;78137.50;;;-142.75;100.00
41632;BME280;37452;51.938;4.624;2023-02-03T04:44:39;78135.53;;;-142.75;100.00
41632;BME280;37452;51.938;4.624;2023-02-03T04:47:04;78145.38;;;-142.75;100.00
41632;BME280;37452;51.938;4.624;2023-02-03T04:49:29;78137.50;;;-142.75;100.00
41632;BME280;37452;51.938;4.624;2023-02-03T04:51:54;78137.50;;;-142.75;100.00
41632;BME280;37452;51.938;4.624;2023-02-03T04:54:20;78133.56;;;-142.75;100.00
41632;BME280;37452;51.938;4.624;2023-02-03T04:56:45;78137.50;;;-142.75;100.00
41632;BME280;37452;51.938;4.624;2023-02-03T04:59:10;78141.44;;;-142.75;100.00
41632;BME280;37452;51.938;4.624;2023-02-03T05:01:35;78137.50;;;-142.75;100.00
41632;BME280;37452;51.938;4.624;2023-02-03T05:04:01;78141.44;;;-142.75;100.00
41632;BME280;37452;51.938;4.624;2023-02-03T05:06:27;78145.38;;;-142.75;100.00
41632;BME280;37452;51.938;4.624;2023-02-03T05:08:54;78149.31;;;-142.75;100.00
41632;BME280;37452;51.938;4.624;2023-02-03T05:11:20;78153.25;;;-142.75;100.00
41632;BME280;37452;51.938;4.624;2023-02-03T05:13:45;78161.13;;;-142.75;100.00
41632;BME280;37452;51.938;4.624;2023-02-03T05:16:11;78133.56;;;-142.75;100.00
41632;BME280;37452;51.938;4.624;2023-02-03T05:18:36;78137.50;;;-142.75;100.00
41632;BME280;37452;51.938;4.624;2023-02-03T05:21:01;78133.56;;;-142.75;100.00
41632;BME280;37452;51.938;4.624;2023-02-03T05:23:26;78141.44;;;-142.75;100.00
41632;BME280;37452;51.938;4.624;2023-02-03T05:25:52;78139.47;;;-142.75;100.00
41632;BME280;37452;51.938;4.624;2023-02-03T05:28:17;78149.31;;;-142.75;100.00
41632;BME280;37452;51.938;4.624;2023-02-03T05:30:42;78143.41;;;-142.75;100.00
41632;BME280;37452;51.938;4.624;2023-02-03T05:33:08;78163.09;;;-142.75;100.00
41632;BME280;37452;51.938;4.624;2023-02-03T05:35:33;78157.19;;;-142.75;100.00
41632;BME280;37452;51.938;4.624;2023-02-03T05:37:58;78151.28;;;-142.75;100.00
41632;BME280;37452;51.938;4.624;2023-02-03T05:40:24;78145.38;;;-142.75;100.00
41632;BME280;37452;51.938;4.624;2023-02-03T05:43:08;78155.22;;;-142.75;100.00
41632;BME280;37452;51.938;4.624;2023-02-03T05:45:33;78145.38;;;-142.75;100.00
41632;BME280;37452;51.938;4.624;2023-02-03T05:47:59;78161.13;;;-142.75;100.00
41632;BME280;37452;51.938;4.624;2023-02-03T05:50:26;78165.06;;;-142.75;100.00
41632;BME280;37452;51.938;4.624;2023-02-03T05:52:54;78159.16;;;-142.75;100.00
41632;BME280;37452;51.938;4.624;2023-02-03T05:55:19;78157.19;;;-142.75;100.00
41632;BME280;37452;51.938;4.624;2023-02-03T05:57:44;78165.06;;;-142.75;100.00
41632;BME280;37452;51.938;4.624;2023-02-03T06:00:10;78165.06;;;-142.75;100.00
41632;BME280;37452;51.938;4.624;2023-02-03T06:02:35;78165.06;;;-142.75;100.00
41632;BME280;37452;51.938;4.624;2023-02-03T06:05:00;78143.41;;;-142.75;100.00
41632;BME280;37452;51.938;4.624;2023-02-03T06:07:26;78161.13;;;-142.75;100.00
41632;BME280;37452;51.938;4.624;2023-02-03T06:09:51;78161.13;;;-142.75;100.00
41632;BME280;37452;51.938;4.624;2023-02-03T06:12:16;78163.09;;;-142.75;100.00
41632;BME280;37452;51.938;4.624;2023-02-03T06:14:42;78145.38;;;-142.75;100.00
41632;BME280;37452;51.938;4.624;2023-02-03T06:17:07;78147.34;;;-142.75;100.00
41632;BME280;37452;51.938;4.624;2023-02-03T06:19:32;78137.50;;;-142.75;100.00
41632;BME280;37452;51.938;4.624;2023-02-03T06:21:57;78129.63;;;-142.75;100.00
41632;BME280;37452;51.938;4.624;2023-02-03T06:24:23;78131.59;;;-142.75;100.00
41632;BME280;37452;51.938;4.624;2023-02-03T06:26:48;78137.50;;;-142.75;100.00
41632;BME280;37452;51.938;4.624;2023-02-03T06:29:13;78121.75;;;-142.75;100.00
41632;BME280;37452;51.938;4.624;2023-02-03T06:31:38;78141.44;;;-142.75;100.00
41632;BME280;37452;51.938;4.624;2023-02-03T06:34:04;78145.38;;;-142.75;100.00
41632;BME280;37452;51.938;4.624;2023-02-03T06:36:29;78161.13;;;-142.75;100.00
41632;BME280;37452;51.938;4.624;2023-02-03T06:38:54;78165.06;;;-142.75;100.00
41632;BME280;37452;51.938;4.624;2023-02-03T06:41:20;78180.81;;;-142.75;100.00
41632;BME280;37452;51.938;4.624;2023-02-03T06:43:51;78188.72;;;-142.75;100.00
41632;BME280;37452;51.938;4.624;2023-02-03T06:46:16;78161.13;;;-142.75;100.00
41632;BME280;37452;51.938;4.624;2023-02-03T06:48:41;78165.06;;;-142.75;100.00
41632;BME280;37452;51.938;4.624;2023-02-03T06:51:07;78172.94;;;-142.75;100.00
41632;BME280;37452;51.938;4.624;2023-02-03T06:53:32;78176.88;;;-142.75;100.00
41632;BME280;37452;51.938;4.624;2023-02-03T06:55:57;78172.94;;;-142.75;100.00
41632;BME280;37452;51.938;4.624;2023-02-03T06:58:22;78182.81;;;-142.75;100.00
41632;BME280;37452;51.938;4.624;2023-02-03T07:00:48;78180.81;;;-142.75;100.00
41632;BME280;37452;51.938;4.624;2023-02-03T07:03:13;78196.59;;;-142.75;100.00
41632;BME280;37452;51.938;4.624;2023-02-03T07:05:38;78176.88;;;-142.75;100.00
41632;BME280;37452;51.938;4.624;2023-02-03T07:08:04;78186.75;;;-142.75;100.00
41632;BME280;37452;51.938;4.624;2023-02-03T07:10:30;78196.59;;;-142.75;100.00
41632;BME280;37452;51.938;4.624;2023-02-03T07:13:01;78188.72;;;-142.75;100.00
41632;BME280;37452;51.938;4.624;2023-02-03T07:15:26;78176.88;;;-142.75;100.00
41632;BME280;37452;51.938;4.624;2023-02-03T07:17:52;78178.84;;;-142.75;100.00
41632;BME280;37452;51.938;4.624;2023-02-03T07:20:19;78176.88;;;-142.75;100.00
41632;BME280;37452;51.938;4.624;2023-02-03T07:22:50;78188.72;;;-142.75;100.00
41632;BME280;37452;51.938;4.624;2023-02-03T07:25:16;78196.59;;;-142.75;100.00
41632;BME280;37452;51.938;4.624;2023-02-03T07:27:41;78188.72;;;-142.75;100.00
41632;BME280;37452;51.938;4.624;2023-02-03T07:30:08;78192.66;;;-142.75;100.00
41632;BME280;37452;51.938;4.624;2023-02-03T07:32:34;78176.88;;;-142.75;100.00
41632;BME280;37452;51.938;4.624;2023-02-03T07:35:02;78180.81;;;-142.75;100.00
41632;BME280;37452;51.938;4.624;2023-02-03T07:37:27;78176.88;;;-142.75;100.00
41632;BME280;37452;51.938;4.624;2023-02-03T07:39:53;78167.03;;;-142.75;100.00
41632;BME280;37452;51.938;4.624;2023-02-03T07:42:18;78178.84;;;-142.75;100.00
41632;BME280;37452;51.938;4.624;2023-02-03T07:44:43;78170.97;;;-142.75;100.00
41632;BME280;37452;51.938;4.624;2023-02-03T07:47:08;78159.16;;;-142.75;100.00
41632;BME280;37452;51.938;4.624;2023-02-03T07:49:33;78161.13;;;-142.75;100.00
41632;BME280;37452;51.938;4.624;2023-02-03T07:51:59;78172.94;;;-142.75;100.00
41632;BME280;37452;51.938;4.624;2023-02-03T07:54:24;78170.97;;;-142.75;100.00
41632;BME280;37452;51.938;4.624;2023-02-03T07:56:50;78163.09;;;-142.75;100.00
41632;BME280;37452;51.938;4.624;2023-02-03T07:59:15;78161.13;;;-142.75;100.00
41632;BME280;37452;51.938;4.624;2023-02-03T08:01:40;78178.84;;;-142.75;100.00
41632;BME280;37452;51.938;4.624;2023-02-03T08:04:06;78161.13;;;-142.75;100.00
41632;BME280;37452;51.938;4.624;2023-02-03T08:06:32;78176.88;;;-142.75;100.00
41632;BME280;37452;51.938;4.624;2023-02-03T08:08:58;78172.94;;;-142.75;100.00
41632;BME280;37452;51.938;4.624;2023-02-03T08:11:23;78169.00;;;-142.75;100.00
41632;BME280;37452;51.938;4.624;2023-02-03T08:13:48;78157.19;;;-142.75;100.00
41632;BME280;37452;51.938;4.624;2023-02-03T08:16:14;78178.84;;;-142.75;100.00
41632;BME280;37452;51.938;4.624;2023-02-03T08:18:39;78153.25;;;-142.75;100.00
41632;BME280;37452;51.938;4.624;2023-02-03T08:21:04;78174.91;;;-142.75;100.00
41632;BME280;37452;51.938;4.624;2023-02-03T08:23:30;78174.91;;;-142.75;100.00
41632;BME280;37452;51.938;4.624;2023-02-03T08:25:55;78161.13;;;-142.75;100.00
41632;BME280;37452;51.938;4.624;2023-02-03T08:28:20;78165.06;;;-142.75;100.00
41632;BME280;37452;51.938;4.624;2023-02-03T08:30:46;78172.94;;;-142.75;100.00
41632;BME280;37452;51.938;4.624;2023-02-03T08:33:11;78163.09;;;-142.75;100.00
41632;BME280;37452;51.938;4.624;2023-02-03T08:35:36;78170.97;;;-142.75;100.00
41632;BME280;37452;51.938;4.624;2023-02-03T08:38:03;78163.09;;;-142.75;100.00
41632;BME280;37452;51.938;4.624;2023-02-03T08:40:28;78153.25;;;-142.75;100.00
41632;BME280;37452;51.938;4.624;2023-02-03T08:42:53;78157.19;;;-142.75;100.00
41632;BME280;37452;51.938;4.624;2023-02-03T08:45:18;78153.25;;;-142.75;100.00
41632;BME280;37452;51.938;4.624;2023-02-03T08:47:44;78145.38;;;-142.75;100.00
41632;BME280;37452;51.938;4.624;2023-02-03T08:50:09;78143.41;;;-142.75;100.00
41632;BME280;37452;51.938;4.624;2023-02-03T08:52:35;78155.22;;;-142.75;100.00
41632;BME280;37452;51.938;4.624;2023-02-03T08:55:00;78155.22;;;-142.75;100.00
41632;BME280;37452;51.938;4.624;2023-02-03T08:57:26;78170.97;;;-142.75;100.00
41632;BME280;37452;51.938;4.624;2023-02-03T08:59:51;78151.28;;;-142.75;100.00
41632;BME280;37452;51.938;4.624;2023-02-03T09:02:18;78153.25;;;-142.75;100.00
41632;BME280;37452;51.938;4.624;2023-02-03T09:04:44;78157.19;;;-142.75;100.00
41632;BME280;37452;51.938;4.624;2023-02-03T09:07:11;78159.16;;;-142.75;100.00
41632;BME280;37452;51.938;4.624;2023-02-03T09:09:37;78153.25;;;-142.75;100.00
41632;BME280;37452;51.938;4.624;2023-02-03T09:12:04;78149.31;;;-142.75;100.00
41632;BME280;37452;51.938;4.624;2023-02-03T09:14:30;78153.25;;;-142.75;100.00
41632;BME280;37452;51.938;4.624;2023-02-03T09:17:00;78151.28;;;-142.75;100.00
41632;BME280;37452;51.938;4.624;2023-02-03T09:19:26;78139.47;;;-142.75;100.00
41632;BME280;37452;51.938;4.624;2023-02-03T09:21:51;78165.06;;;-142.75;100.00
41632;BME280;37452;51.938;4.624;2023-02-03T09:24:17;78161.13;;;-142.75;100.00
41632;BME280;37452;51.938;4.624;2023-02-03T09:26:43;78172.94;;;-142.75;100.00
41632;BME280;37452;51.938;4.624;2023-02-03T09:29:08;78167.03;;;-142.75;100.00
41632;BME280;37452;51.938;4.624;2023-02-03T09:31:33;78161.13;;;-142.75;100.00
41632;BME280;37452;51.938;4.624;2023-02-03T09:33:59;78157.19;;;-142.75;100.00
41632;BME280;37452;51.938;4.624;2023-02-03T09:36:24;78163.09;;;-142.75;100.00
41632;BME280;37452;51.938;4.624;2023-02-03T09:38:50;78163.09;;;-142.75;100.00
41632;BME280;37452;51.938;4.624;2023-02-03T09:41:25;78161.13;;;-142.75;100.00
41632;BME280;37452;51.938;4.624;2023-02-03T09:44:03;78165.06;;;-142.75;100.00
41632;BME280;37452;51.938;4.624;2023-02-03T09:46:44;78157.19;;;-142.75;100.00
41632;BME280;37452;51.938;4.624;2023-02-03T09:49:21;78143.41;;;-142.75;100.00
41632;BME280;37452;51.938;4.624;2023-02-03T09:51:56;78127.66;;;-142.75;100.00
41632;BME280;37452;51.938;4.624;2023-02-03T09:57:27;78102.06;;;-142.75;100.00
41632;BME280;37452;51.938;4.624;2023-02-03T09:59:56;78117.81;;;-142.75;100.00
41632;BME280;37452;51.938;4.624;2023-02-03T10:07:27;78109.94;;;-142.75;100.00
41632;BME280;37452;51.938;4.624;2023-02-03T10:10:07;78109.94;;;-142.75;100.00
41632;BME280;37452;51.938;4.624;2023-02-03T10:12:51;78113.88;;;-142.75;100.00
41632;BME280;37452;51.938;4.624;2023-02-03T10:15:38;78119.78;;;-142.75;100.00
41632;BME280;37452;51.938;4.624;2023-02-03T10:18:08;78115.84;;;-142.75;100.00
41632;BME280;37452;51.938;4.624;2023-02-03T10:20:48;78109.94;;;-142.75;100.00
41632;BME280;37452;51.938;4.624;2023-02-03T10:23:35;78066.63;;;-142.75;100.00
41632;BME280;37452;51.938;4.624;2023-02-03T10:26:04;78074.50;;;-142.75;100.00
41632;BME280;37452;51.938;4.624;2023-02-03T10:28:36;78058.72;;;-142.75;100.00
41632;BME280;37452;51.938;4.624;2023-02-03T10:31:12;78046.91;;;-142.75;100.00
41632;BME280;37452;51.938;4.624;2023-02-03T10:33:40;78044.94;;;-142.75;100.00
41632;BME280;37452;51.938;4.624;2023-02-03T10:41:11;78037.06;;;-142.75;100.00
41632;BME280;37452;51.938;4.624;2023-02-03T10:43:37;78039.03;;;-142.75;100.00
41632;BME280;37452;51.938;4.624;2023-02-03T10:46:11;78054.81;;;-142.75;100.00
41632;BME280;37452;51.938;4.624;2023-02-03T10:48:37;78033.13;;;-142.75;100.00
41632;BME280;37452;51.938;4.624;2023-02-03T10:51:02;78054.81;;;-142.75;100.00
41632;BME280;37452;51.938;4.624;2023-02-03T10:53:34;78066.63;;;-142.75;100.00
41632;BME280;37452;51.938;4.624;2023-02-03T10:56:07;78062.69;;;-142.75;100.00
41632;BME280;37452;51.938;4.624;2023-02-03T10:58:36;78074.50;;;-142.75;100.00
41632;BME280;37452;51.938;4.624;2023-02-03T11:01:13;78068.59;;;-142.75;100.00
41632;BME280;37452;51.938;4.624;2023-02-03T11:03:44;78066.63;;;-142.75;100.00
41632;BME280;37452;51.938;4.624;2023-02-03T11:06:18;78102.06;;;-142.75;100.00
41632;BME280;37452;51.938;4.624;2023-02-03T11:08:44;78100.09;;;-142.75;100.00
41632;BME280;37452;51.938;4.624;2023-02-03T11:11:25;78074.50;;;-142.75;100.00
41632;BME280;37452;51.938;4.624;2023-02-03T11:16:29;78072.53;;;-142.75;100.00
41632;BME280;37452;51.938;4.624;2023-02-03T11:21:43;78058.72;;;-142.75;100.00
41632;BME280;37452;51.938;4.624;2023-02-03T11:24:20;78076.47;;;-142.75;100.00
41632;BME280;37452;51.938;4.624;2023-02-03T11:26:47;78042.97;;;-142.75;100.00
41632;BME280;37452;51.938;4.624;2023-02-03T11:29:25;78058.72;;;-142.75;100.00
41632;BME280;37452;51.938;4.624;2023-02-03T11:31:53;78066.63;;;-142.75;100.00
41632;BME280;37452;51.938;4.624;2023-02-03T11:34:23;78086.31;;;-142.75;100.00
41632;BME280;37452;51.938;4.624;2023-02-03T11:36:50;78106.00;;;-142.75;100.00
41632;BME280;37452;51.938;4.624;2023-02-03T11:39:26;78090.25;;;-142.75;100.00
41632;BME280;37452;51.938;4.624;2023-02-03T11:41:52;78098.13;;;-142.75;100.00
41632;BME280;37452;51.938;4.624;2023-02-03T11:44:23;78074.50;;;-142.75;100.00
41632;BME280;37452;51.938;4.624;2023-02-03T11:47:28;78109.94;;;-142.75;100.00
41632;BME280;37452;51.938;4.624;2023-02-03T11:50:16;78082.38;;;-142.75;100.00
41632;BME280;37452;51.938;4.624;2023-02-03T11:55:46;78084.34;;;-142.75;100.00
41632;BME280;37452;51.938;4.624;2023-02-03T12:03:49;78109.94;;;-142.75;100.00
41632;BME280;37452;51.938;4.624;2023-02-03T12:09:26;78113.88;;;-142.75;100.00
41632;BME280;37452;51.938;4.624;2023-02-03T12:11:59;78115.84;;;-142.75;100.00
41632;BME280;37452;51.938;4.624;2023-02-03T12:17:32;78111.91;;;-142.75;100.00
41632;BME280;37452;51.938;4.624;2023-02-03T12:20:36;78094.19;;;-142.75;100.00
41632;BME280;37452;51.938;4.624;2023-02-03T12:23:14;78084.34;;;-142.75;100.00
41632;BME280;37452;51.938;4.624;2023-02-03T12:26:13;78094.19;;;-142.75;100.00
41632;BME280;37452;51.938;4.624;2023-02-03T12:28:47;78100.09;;;-142.75;100.00
41632;BME280;37452;51.938;4.624;2023-02-03T12:31:24;78094.19;;;-142.75;100.00
41632;BME280;37452;51.938;4.624;2023-02-03T12:33:59;78123.72;;;-142.75;100.00
41632;BME280;37452;51.938;4.624;2023-02-03T12:36:30;78133.56;;;-142.75;100.00
41632;BME280;37452;51.938;4.624;2023-02-03T12:39:20;78115.84;;;-142.75;100.00
41632;BME280;37452;51.938;4.624;2023-02-03T12:41:55;78119.78;;;-142.75;100.00
41632;BME280;37452;51.938;4.624;2023-02-03T12:44:28;78106.00;;;-142.75;100.00
41632;BME280;37452;51.938;4.624;2023-02-03T12:47:02;78106.00;;;-142.75;100.00
41632;BME280;37452;51.938;4.624;2023-02-03T12:49:38;78113.88;;;-142.75;100.00
41632;BME280;37452;51.938;4.624;2023-02-03T12:52:26;78107.97;;;-142.75;100.00
41632;BME280;37452;51.938;4.624;2023-02-03T12:55:15;78111.91;;;-142.75;100.00
41632;BME280;37452;51.938;4.624;2023-02-03T12:57:50;78133.56;;;-142.75;100.00
41632;BME280;37452;51.938;4.624;2023-02-03T13:03:12;78133.56;;;-142.75;100.00
41632;BME280;37452;51.938;4.624;2023-02-03T13:08:33;78113.88;;;-142.75;100.00
41632;BME280;37452;51.938;4.624;2023-02-03T13:11:23;78109.94;;;-142.75;100.00
41632;BME280;37452;51.938;4.624;2023-02-03T13:14:04;78121.75;;;-142.75;100.00
41632;BME280;37452;51.938;4.624;2023-02-03T13:16:37;78139.47;;;-142.75;100.00
41632;BME280;37452;51.938;4.624;2023-02-03T13:19:10;78139.47;;;-142.75;100.00
41632;BME280;37452;51.938;4.624;2023-02-03T13:21:37;78153.25;;;-142.75;100.00
41632;BME280;37452;51.938;4.624;2023-02-03T13:24:03;78157.19;;;-142.75;100.00
41632;BME280;37452;51.938;4.624;2023-02-03T13:26:54;78170.97;;;-142.75;100.00
41632;BME280;37452;51.938;4.624;2023-02-03T13:34:46;78188.72;;;-142.75;100.00
41632;BME280;37452;51.938;4.624;2023-02-03T13:40:31;78198.56;;;-142.75;100.00
41632;BME280;37452;51.938;4.624;2023-02-03T13:43:04;78188.72;;;-142.75;100.00
41632;BME280;37452;51.938;4.624;2023-02-03T13:45:46;78196.59;;;-142.75;100.00
41632;BME280;37452;51.938;4.624;2023-02-03T13:48:19;78208.41;;;-142.75;100.00
41632;BME280;37452;51.938;4.624;2023-02-03T13:50:46;78210.38;;;-142.75;100.00
41632;BME280;37452;51.938;4.624;2023-02-03T13:53:16;78208.41;;;-142.75;100.00